Time;durP1;ratioP1;P1;durP2;ratioP2;P2;SDS_P1;SDS_P2;PMS_P1;PMS_P2;Temp;Humidity;BMP_temperature;BMP_pressure;BME280_temperature;BME280_humidity;BME280_pressure;Samples;Min_cycle;Max_cycle;Signal;HPM_P1;HPM_P2
2021/01/26 00:00:15;;;;;;;7.40;5.22;;;;;;;-0.96;87.68;96482.69;5075073;28;20040;-68
2021/01/26 00:02:40;;;;;;;8.57;5.25;;;;;;;-0.95;87.97;96484.28;5063518;28;20037;-61
2021/01/26 00:05:07;;;;;;;7.20;4.88;;;;;;;-0.86;87.82;96481.69;5074495;28;20545;-65
2021/01/26 00:07:32;;;;;;;7.15;5.28;;;;;;;-0.91;87.25;96482.59;5083081;28;20131;-64
2021/01/26 00:09:58;;;;;;;7.63;5.30;;;;;;;-0.80;86.80;96475.91;5081825;28;20115;-60
2021/01/26 00:12:24;;;;;;;8.10;4.90;;;;;;;-0.82;86.55;96480.00;5077509;28;20400;-60
2021/01/26 00:14:49;;;;;;;8.77;5.32;;;;;;;-0.83;86.51;96481.91;5082523;27;20496;-60
2021/01/26 00:17:14;;;;;;;6.47;4.93;;;;;;;-0.79;86.25;96493.66;5077145;28;20033;-60
2021/01/26 00:19:40;;;;;;;7.38;5.28;;;;;;;-0.77;85.96;96487.97;5083207;28;20044;-61
2021/01/26 00:22:05;;;;;;;7.40;5.40;;;;;;;-0.67;85.28;96498.53;5077460;28;20040;-67
2021/01/26 00:24:30;;;;;;;8.30;5.20;;;;;;;-0.66;84.83;96502.81;5080511;28;20638;-63
2021/01/26 00:26:56;;;;;;;6.53;4.78;;;;;;;-0.77;85.58;96499.53;5083173;28;20070;-61
2021/01/26 00:29:21;;;;;;;8.00;5.47;;;;;;;-0.80;85.81;96504.69;5093516;27;20059;-60
2021/01/26 00:31:47;;;;;;;8.80;5.38;;;;;;;-0.88;85.76;96508.88;5101092;27;20038;-61
2021/01/26 00:34:12;;;;;;;9.20;5.55;;;;;;;-0.82;85.96;96499.63;5095969;27;20052;-62
2021/01/26 00:36:37;;;;;;;8.82;5.10;;;;;;;-0.78;86.03;96502.50;5103029;27;20061;-63
2021/01/26 00:39:03;;;;;;;8.40;4.82;;;;;;;-0.74;85.43;96506.19;5100074;27;20538;-66
2021/01/26 00:41:29;;;;;;;8.27;5.10;;;;;;;-0.78;85.85;96511.38;5102459;27;20044;-68
2021/01/26 00:43:54;;;;;;;8.05;5.22;;;;;;;-0.69;85.65;96513.38;5102886;27;20046;-59
2021/01/26 00:46:19;;;;;;;7.40;4.50;;;;;;;-0.74;85.47;96513.47;5097160;27;20069;-62
2021/01/26 00:48:45;;;;;;;7.25;4.28;;;;;;;-0.73;85.57;96521.25;5102935;27;20102;-61
2021/01/26 00:51:10;;;;;;;7.60;5.28;;;;;;;-0.70;85.36;96527.91;5095986;27;20036;-60
2021/01/26 00:53:36;;;;;;;8.43;5.88;;;;;;;-0.61;84.75;96526.16;5085364;28;20105;-60
2021/01/26 00:56:02;;;;;;;7.80;5.03;;;;;;;-0.74;86.99;96533.09;5081568;28;20101;-60
2021/01/26 00:58:28;;;;;;;7.47;5.13;;;;;;;-0.77;87.27;96533.69;5062469;28;20108;-59
2021/01/26 01:00:53;;;;;;;11.90;5.18;;;;;;;-0.78;87.44;96537.47;5080884;28;20443;-60
2021/01/26 01:03:18;;;;;;;7.82;5.25;;;;;;;-0.85;88.14;96535.16;5075372;28;20048;-62
2021/01/26 01:05:44;;;;;;;8.07;5.35;;;;;;;-0.89;88.73;96542.22;5080506;28;20043;-60
2021/01/26 01:08:09;;;;;;;8.73;5.65;;;;;;;-0.90;88.44;96543.34;5073176;28;20044;-58
2021/01/26 01:10:39;;;;;;;8.48;5.50;;;;;;;-0.96;89.28;96549.88;5084850;28;20036;-61
2021/01/26 01:13:06;;;;;;;10.90;6.30;;;;;;;-0.92;89.38;96548.19;5085224;28;20064;-65
2021/01/26 01:15:31;;;;;;;10.98;5.82;;;;;;;-0.97;89.31;96557.16;5086287;28;20631;-61
2021/01/26 01:17:57;;;;;;;8.10;4.95;;;;;;;-0.82;89.03;96555.28;5079399;28;20039;-63
2021/01/26 01:20:26;;;;;;;10.05;5.85;;;;;;;-0.77;88.55;96560.59;5076770;28;20482;-60
2021/01/26 01:22:51;;;;;;;10.85;5.88;;;;;;;-0.82;88.61;96566.06;5064809;28;20791;-56
2021/01/26 01:25:17;;;;;;;9.48;5.80;;;;;;;-0.81;88.63;96556.88;5094479;27;20050;-58
2021/01/26 01:27:43;;;;;;;10.93;6.45;;;;;;;-0.82;88.64;96566.84;5094124;27;20040;-58
2021/01/26 01:30:10;;;;;;;8.23;5.63;;;;;;;-0.71;88.58;96566.66;5073194;28;20113;-63
2021/01/26 01:32:36;;;;;;;8.27;5.85;;;;;;;-0.72;88.49;96568.56;5082052;28;20477;-60
2021/01/26 01:35:02;;;;;;;11.02;5.90;;;;;;;-0.76;88.83;96572.94;5079474;28;20048;-60
2021/01/26 01:37:27;;;;;;;11.55;5.72;;;;;;;-0.81;89.37;96575.69;5077022;28;20043;-57
2021/01/26 01:39:53;;;;;;;9.00;5.90;;;;;;;-0.87;88.95;96572.31;5081750;27;20044;-58
2021/01/26 01:42:18;;;;;;;8.77;5.60;;;;;;;-0.93;88.83;96575.41;5075180;28;20039;-61
2021/01/26 01:44:44;;;;;;;11.15;5.90;;;;;;;-0.90;89.00;96578.28;5080814;28;20488;-59
2021/01/26 01:47:17;;;;;;;9.07;5.00;;;;;;;-0.85;88.95;96580.88;5076002;28;20036;-60
2021/01/26 01:49:45;;;;;;;8.63;5.03;;;;;;;-0.90;88.82;96586.38;5081915;28;20060;-60
2021/01/26 01:52:23;;;;;;;8.57;5.65;;;;;;;-0.89;88.74;96589.84;5074604;28;20130;-61
2021/01/26 01:54:56;;;;;;;10.48;5.95;;;;;;;-0.87;88.59;96593.03;5081265;28;20113;-61
2021/01/26 01:57:53;;;;;;;9.15;5.50;;;;;;;-0.89;88.21;96593.31;5077161;28;22599;-60
2021/01/26 02:00:20;;;;;;;8.27;5.65;;;;;;;-0.80;88.10;96601.50;5077094;28;20072;-57
2021/01/26 02:02:52;;;;;;;11.25;5.65;;;;;;;-0.86;88.02;96603.50;5081687;28;20054;-61
2021/01/26 02:05:17;;;;;;;9.45;5.40;;;;;;;-0.77;87.64;96600.94;5078201;28;20154;-60
2021/01/26 02:07:43;;;;;;;11.70;6.40;;;;;;;-0.80;87.07;96610.38;5079526;28;20504;-58
2021/01/26 02:10:10;;;;;;;9.43;5.63;;;;;;;-0.74;87.00;96607.59;5079342;28;20741;-65
2021/01/26 02:12:36;;;;;;;9.50;6.28;;;;;;;-0.77;86.44;96612.47;5095204;27;20127;-66
2021/01/26 02:15:03;;;;;;;8.40;5.25;;;;;;;-0.76;86.34;96618.66;5095268;28;20523;-65
2021/01/26 02:17:47;;;;;;;9.98;5.35;;;;;;;-0.71;86.18;96610.50;5075804;28;20039;-65
2021/01/26 02:20:34;;;;;;;9.38;5.80;;;;;;;-0.82;86.58;96622.53;5091551;28;20157;-61
2021/01/26 02:23:25;;;;;;;8.60;5.28;;;;;;;-0.66;86.33;96623.84;5091948;28;20044;-64
2021/01/26 02:26:15;;;;;;;10.40;5.25;;;;;;;-0.49;84.75;96633.25;5095967;28;20450;-63
2021/01/26 02:29:02;;;;;;;8.45;5.00;;;;;;;-0.52;85.27;96633.84;5095148;28;20031;-64
2021/01/26 02:31:55;;;;;;;9.93;5.80;;;;;;;-0.63;85.85;96635.91;5090291;28;20570;-64
2021/01/26 02:34:35;;;;;;;8.50;5.25;;;;;;;-0.52;84.84;96639.22;5084508;28;20135;-63
2021/01/26 02:37:13;;;;;;;8.98;5.47;;;;;;;-0.66;85.44;96640.00;5088459;28;20419;-65
2021/01/26 02:40:16;;;;;;;9.45;5.40;;;;;;;-0.51;84.89;96638.13;5087824;28;20044;-64
2021/01/26 02:43:07;;;;;;;8.10;4.97;;;;;;;-0.39;84.23;96635.78;5083202;28;20044;-63
2021/01/26 02:45:41;;;;;;;9.60;5.53;;;;;;;-0.43;83.67;96642.84;5081750;28;20020;-62
2021/01/26 02:48:28;;;;;;;7.90;5.13;;;;;;;-0.63;84.76;96655.56;5068978;28;20063;-60
2021/01/26 02:51:06;;;;;;;9.27;5.45;;;;;;;-0.65;85.01;96656.94;5060369;28;20392;-61
2021/01/26 02:53:34;;;;;;;7.88;5.35;;;;;;;-0.75;85.60;96659.81;5067059;28;20052;-64
2021/01/26 02:56:25;;;;;;;10.27;5.47;;;;;;;-0.81;85.15;96662.56;5078103;28;20075;-65
2021/01/26 02:59:10;;;;;;;9.90;5.53;;;;;;;-0.75;84.93;96659.81;5078717;28;20159;-61
2021/01/26 03:01:42;;;;;;;6.68;4.85;;;;;;;-0.81;84.89;96664.44;5079335;28;20036;-62
2021/01/26 03:04:16;;;;;;;8.90;5.82;;;;;;;-0.93;84.62;96662.22;5074879;28;20048;-63
2021/01/26 03:06:45;;;;;;;7.85;5.68;;;;;;;-0.99;85.71;96671.44;5072620;28;20112;-64
2021/01/26 03:09:42;;;;;;;8.77;5.90;;;;;;;-1.13;85.87;96682.16;5075753;28;20048;-63
2021/01/26 03:12:27;;;;;;;8.25;5.20;;;;;;;-1.18;85.76;96672.25;5083710;28;20047;-65
2021/01/26 03:15:03;;;;;;;7.50;5.10;;;;;;;-1.18;85.74;96672.25;5084873;28;20044;-61
2021/01/26 03:17:49;;;;;;;11.27;5.40;;;;;;;-1.08;84.79;96671.34;5057425;28;20530;-60
2021/01/26 03:20:21;;;;;;;7.90;5.30;;;;;;;-1.14;84.64;96677.84;5076229;28;20047;-60
2021/01/26 03:22:51;;;;;;;9.07;5.38;;;;;;;-1.22;84.71;96697.34;5084074;28;20117;-60
2021/01/26 03:25:19;;;;;;;9.48;5.45;;;;;;;-1.27;84.94;96694.72;5078374;28;20039;-60
2021/01/26 03:27:48;;;;;;;10.45;5.28;;;;;;;-1.30;85.39;96695.28;5083835;28;20032;-61
2021/01/26 03:30:19;;;;;;;8.60;5.78;;;;;;;-1.25;85.33;96697.91;5079678;28;20827;-61
2021/01/26 03:33:00;;;;;;;7.78;4.68;;;;;;;-1.36;85.02;96708.78;5082511;27;20051;-61
2021/01/26 03:35:25;;;;;;;8.13;5.00;;;;;;;-1.39;85.36;96708.56;5077385;28;20048;-57
2021/01/26 03:37:56;;;;;;;10.57;5.60;;;;;;;-1.44;86.16;96714.81;5083015;28;20060;-60
2021/01/26 03:40:22;;;;;;;8.93;5.55;;;;;;;-1.35;85.58;96712.31;5078443;27;20966;-64
2021/01/26 03:42:48;;;;;;;8.80;5.80;;;;;;;-1.43;85.74;96719.09;5081566;28;20143;-62
2021/01/26 03:45:14;;;;;;;10.50;6.65;;;;;;;-1.49;85.82;96727.53;5078627;28;20067;-58
2021/01/26 03:47:49;;;;;;;8.77;5.15;;;;;;;-1.55;85.86;96724.09;5083004;28;20043;-60
2021/01/26 03:50:38;;;;;;;11.57;6.43;;;;;;;-1.55;85.81;96735.66;5078107;28;20044;-59
2021/01/26 03:53:15;;;;;;;8.68;4.93;;;;;;;-1.54;85.76;96729.16;5079593;28;20536;-62
2021/01/26 03:55:43;;;;;;;11.52;6.50;;;;;;;-1.55;85.61;96724.91;5082030;28;20404;-60
2021/01/26 03:58:37;;;;;;;9.85;5.95;;;;;;;-1.57;86.04;96740.50;5077439;28;20469;-61
2021/01/26 04:01:26;;;;;;;10.93;5.65;;;;;;;-1.60;85.88;96735.72;5079297;28;20063;-68
2021/01/26 04:04:03;;;;;;;11.10;6.10;;;;;;;-1.62;85.87;96742.44;5076718;28;20094;-61
2021/01/26 04:06:47;;;;;;;10.68;5.70;;;;;;;-1.59;85.89;96747.25;5084454;28;20721;-65
2021/01/26 04:09:18;;;;;;;34.92;14.60;;;;;;;-1.56;85.68;96742.09;5085541;28;20131;-65
2021/01/26 04:11:50;;;;;;;11.30;6.50;;;;;;;-1.60;85.16;96740.28;5076363;28;20051;-61
2021/01/26 04:14:30;;;;;;;10.07;5.50;;;;;;;-1.57;85.44;96748.56;5074814;28;20417;-62
2021/01/26 04:16:55;;;;;;;9.15;5.55;;;;;;;-1.53;85.33;96759.53;5083186;28;20036;-62
2021/01/26 04:19:25;;;;;;;8.73;5.63;;;;;;;-1.54;84.93;96752.56;5077288;28;20505;-61
2021/01/26 04:21:51;;;;;;;8.68;5.47;;;;;;;-1.59;85.02;96753.41;5075623;27;20098;-61
2021/01/26 04:24:18;;;;;;;9.18;5.28;;;;;;;-1.52;84.54;96760.34;5057372;28;20080;-61
2021/01/26 04:26:46;;;;;;;13.65;5.70;;;;;;;-1.53;84.72;96756.84;5059416;28;20098;-61
2021/01/26 04:29:11;;;;;;;11.80;5.90;;;;;;;-1.52;84.22;96769.19;5055175;28;20135;-62
2021/01/26 04:31:37;;;;;;;9.30;6.03;;;;;;;-1.51;83.95;96769.97;5062031;28;20469;-64
2021/01/26 04:34:03;;;;;;;9.00;4.93;;;;;;;-1.41;83.81;96777.91;5057918;28;20123;-67
2021/01/26 04:36:28;;;;;;;10.43;5.82;;;;;;;-1.42;82.96;96769.06;5051894;28;20540;-62
2021/01/26 04:38:54;;;;;;;8.63;4.95;;;;;;;-1.50;83.13;96774.28;5061274;28;20044;-63
2021/01/26 04:41:39;;;;;;;10.38;5.70;;;;;;;-1.50;83.47;96785.00;5057338;28;20042;-62
2021/01/26 04:44:16;;;;;;;8.98;5.25;;;;;;;-1.54;83.50;96772.16;5052147;28;20123;-67
2021/01/26 04:46:57;;;;;;;8.70;5.15;;;;;;;-1.61;83.88;96781.66;5042866;28;20051;-62
2021/01/26 04:49:35;;;;;;;7.63;5.35;;;;;;;-1.60;84.07;96792.09;5036652;28;20056;-62
2021/01/26 04:52:15;;;;;;;10.32;6.03;;;;;;;-1.61;84.30;96797.75;5060741;28;20041;-63
2021/01/26 04:54:49;;;;;;;9.30;5.45;;;;;;;-1.60;84.43;96785.94;5082557;28;20055;-62
2021/01/26 04:57:33;;;;;;;11.00;6.47;;;;;;;-1.51;84.38;96791.47;5082193;27;20070;-63
2021/01/26 05:00:13;;;;;;;8.93;5.25;;;;;;;-1.54;83.85;96787.47;5082598;28;20412;-61
2021/01/26 05:03:11;;;;;;;10.55;5.38;;;;;;;-1.65;83.81;96797.53;5082262;28;20436;-62
2021/01/26 05:05:40;;;;;;;9.70;6.05;;;;;;;-1.64;83.98;96809.88;5081550;28;20063;-61
2021/01/26 05:08:12;;;;;;;8.27;4.95;;;;;;;-1.49;83.35;96808.13;5072784;28;20048;-61
2021/01/26 05:10:43;;;;;;;9.95;5.88;;;;;;;-1.38;82.45;96807.69;5082743;28;20039;-62
2021/01/26 05:13:18;;;;;;;9.70;5.82;;;;;;;-1.54;82.85;96811.66;5087766;28;20079;-63
2021/01/26 05:15:49;;;;;;;8.95;5.63;;;;;;;-1.62;83.02;96810.41;5095902;28;20131;-63
2021/01/26 05:18:33;;;;;;;10.38;6.05;;;;;;;-1.70;83.68;96811.00;5079353;28;20040;-62
2021/01/26 05:21:05;;;;;;;10.60;6.20;;;;;;;-1.68;83.49;96816.88;5084385;28;20700;-62
2021/01/26 05:23:38;;;;;;;9.88;5.93;;;;;;;-1.73;83.71;96816.94;5072789;28;20404;-61
2021/01/26 05:26:08;;;;;;;9.55;5.75;;;;;;;-1.71;82.91;96822.84;5080561;28;20044;-62
2021/01/26 05:28:35;;;;;;;11.48;6.15;;;;;;;-1.74;82.85;96826.09;5080890;28;20044;-62
2021/01/26 05:31:07;;;;;;;9.43;6.13;;;;;;;-1.67;83.14;96823.09;5081243;28;20040;-62
2021/01/26 05:33:34;;;;;;;9.00;5.63;;;;;;;-1.70;82.81;96821.75;5073686;28;20047;-60
2021/01/26 05:36:02;;;;;;;8.45;5.20;;;;;;;-1.65;82.28;96837.03;5080515;28;20044;-58
2021/01/26 05:38:28;;;;;;;10.15;5.60;;;;;;;-1.62;82.57;96833.75;5077732;28;20052;-63
2021/01/26 05:40:57;;;;;;;8.95;5.25;;;;;;;-1.62;82.34;96833.75;5081836;28;20066;-62
2021/01/26 05:43:27;;;;;;;9.40;5.43;;;;;;;-1.57;82.34;96836.38;5073695;28;20216;-60
2021/01/26 05:45:58;;;;;;;11.45;5.85;;;;;;;-1.64;81.47;96843.97;5080779;28;20036;-64
2021/01/26 05:48:25;;;;;;;10.07;5.90;;;;;;;-1.73;82.21;96851.84;5077452;28;20044;-63
2021/01/26 05:51:10;;;;;;;11.80;5.80;;;;;;;-1.71;82.70;96846.19;5082032;28;20068;-62
2021/01/26 05:53:35;;;;;;;10.95;5.85;;;;;;;-1.84;82.90;96853.81;5081538;28;20058;-63
2021/01/26 05:56:10;;;;;;;14.90;7.18;;;;;;;-1.77;82.69;96862.34;5082332;28;20508;-64
2021/01/26 05:58:38;;;;;;;10.65;5.93;;;;;;;-1.74;82.62;96869.06;5083839;28;20540;-60
2021/01/26 06:01:08;;;;;;;13.70;7.28;;;;;;;-1.81;82.97;96868.59;5083244;28;20064;-61
2021/01/26 06:03:34;;;;;;;12.07;7.13;;;;;;;-1.85;82.63;96870.25;5079974;28;20792;-63
2021/01/26 06:06:08;;;;;;;15.88;7.97;;;;;;;-1.94;82.83;96876.22;5081005;28;20040;-63
2021/01/26 06:08:55;;;;;;;14.63;7.40;;;;;;;-1.93;82.80;96882.38;5075348;28;20057;-63
2021/01/26 06:11:29;;;;;;;12.10;6.53;;;;;;;-1.96;82.94;96889.13;5074917;28;20535;-59
2021/01/26 06:14:15;;;;;;;16.63;7.30;;;;;;;-2.04;82.34;96903.13;5080710;28;20108;-60
2021/01/26 06:16:41;;;;;;;14.57;7.07;;;;;;;-2.02;82.05;96909.00;5073549;28;20192;-60
2021/01/26 06:19:07;;;;;;;11.52;6.05;;;;;;;-2.01;81.60;96904.47;5091451;28;20070;-66
2021/01/26 06:21:48;;;;;;;14.63;6.38;;;;;;;-2.04;82.05;96908.50;5099739;28;20092;-65
2021/01/26 06:24:19;;;;;;;14.38;6.72;;;;;;;-2.06;81.83;96905.28;5094170;28;20044;-66
2021/01/26 06:27:10;;;;;;;12.88;6.72;;;;;;;-1.98;81.82;96898.50;5100855;28;20044;-66
2021/01/26 06:30:04;;;;;;;13.10;6.95;;;;;;;-2.00;81.53;96903.38;5093357;28;20051;-64
2021/01/26 06:32:54;;;;;;;11.90;6.40;;;;;;;-2.03;81.30;96902.06;5096947;28;20052;-65
2021/01/26 06:35:52;;;;;;;12.35;6.47;;;;;;;-2.01;81.13;96904.47;5087392;28;20037;-63
2021/01/26 06:38:33;;;;;;;14.35;7.70;;;;;;;-2.07;82.16;96898.34;5095108;28;20514;-64
2021/01/26 06:41:29;;;;;;;13.82;6.63;;;;;;;-1.96;82.47;96905.22;5096019;28;20040;-62
2021/01/26 06:44:25;;;;;;;17.85;7.60;;;;;;;-1.80;82.43;96913.13;5065944;28;20039;-65
2021/01/26 06:46:51;;;;;;;13.77;7.50;;;;;;;-1.93;82.62;96904.66;5068212;28;20047;-65
2021/01/26 06:49:40;;;;;;;21.88;8.15;;;;;;;-1.93;82.28;96914.59;5096531;28;20044;-65
2021/01/26 06:52:13;;;;;;;17.25;8.07;;;;;;;-1.93;82.10;96930.69;5083038;28;20050;-63
2021/01/26 06:55:06;;;;;;;17.63;8.55;;;;;;;-1.96;82.70;96926.69;5084741;28;20036;-61
2021/01/26 06:57:57;;;;;;;16.10;7.85;;;;;;;-1.90;82.47;96929.34;5085633;27;20075;-64
2021/01/26 07:00:28;;;;;;;18.20;7.97;;;;;;;-1.75;81.84;96918.47;5100243;28;20334;-66
2021/01/26 07:03:27;;;;;;;18.35;8.80;;;;;;;-1.79;81.54;96920.91;5105316;28;20055;-65
2021/01/26 07:06:04;;;;;;;15.68;7.85;;;;;;;-1.83;81.69;96927.94;5086570;28;20090;-65
2021/01/26 07:08:48;;;;;;;16.08;7.75;;;;;;;-1.72;80.16;96928.66;5086768;28;20151;-62
2021/01/26 07:11:28;;;;;;;13.32;6.80;;;;;;;-1.68;80.34;96927.00;5077487;28;20112;-64
2021/01/26 07:14:02;;;;;;;15.57;7.75;;;;;;;-1.64;79.77;96921.88;5082939;28;20134;-61
2021/01/26 07:16:57;;;;;;;15.57;7.45;;;;;;;-1.66;79.64;96918.66;5061245;28;20040;-60
2021/01/26 07:19:32;;;;;;;18.17;7.07;;;;;;;-1.59;79.16;96917.25;5063836;28;20819;-61
2021/01/26 07:22:03;;;;;;;13.60;7.13;;;;;;;-1.65;79.50;96918.38;5080185;28;20067;-63
2021/01/26 07:24:49;;;;;;;17.55;6.70;;;;;;;-1.60;79.37;96931.78;5072535;28;20040;-61
2021/01/26 07:27:46;;;;;;;14.20;6.43;;;;;;;-1.60;79.28;96926.41;5078167;28;20044;-61
2021/01/26 07:30:20;;;;;;;14.75;7.45;;;;;;;-1.63;79.17;96932.34;5077673;28;20512;-61
2021/01/26 07:33:00;;;;;;;12.68;6.38;;;;;;;-1.58;78.99;96947.63;5083657;28;20082;-57
2021/01/26 07:36:02;;;;;;;12.05;5.97;;;;;;;-1.55;77.46;96955.09;5074300;28;20040;-59
2021/01/26 07:38:36;;;;;;;13.20;6.05;;;;;;;-1.41;77.68;96949.88;5070354;28;20048;-60
2021/01/26 07:41:17;;;;;;;11.10;5.60;;;;;;;-1.39;77.26;96955.75;5082982;28;20432;-65
2021/01/26 07:44:01;;;;;;;11.43;5.22;;;;;;;-1.45;77.59;96957.69;5084025;28;20054;-60
2021/01/26 07:46:33;;;;;;;11.15;5.25;;;;;;;-1.46;76.70;96953.44;5077067;28;20477;-63
2021/01/26 07:49:23;;;;;;;9.35;4.95;;;;;;;-1.43;75.92;96952.03;5083804;28;20475;-64
2021/01/26 07:51:55;;;;;;;8.32;4.55;;;;;;;-1.38;75.38;96954.69;5083102;28;20040;-59
2021/01/26 07:54:38;;;;;;;12.45;4.90;;;;;;;-1.31;75.51;96959.75;5076712;28;20040;-61
2021/01/26 07:57:05;;;;;;;10.48;4.63;;;;;;;-1.20;74.64;96951.28;5084809;28;20491;-68
2021/01/26 07:59:51;;;;;;;9.07;5.10;;;;;;;-1.37;75.98;96983.97;5088944;28;20040;-64
2021/01/26 08:02:30;;;;;;;8.43;4.70;;;;;;;-1.39;76.04;96979.94;5080123;28;20444;-63
2021/01/26 08:04:55;;;;;;;8.82;4.90;;;;;;;-1.35;75.70;96979.13;5080095;28;20381;-59
2021/01/26 08:07:26;;;;;;;7.13;3.97;;;;;;;-1.21;74.16;96978.44;5073262;28;20040;-57
2021/01/26 08:09:53;;;;;;;9.05;4.47;;;;;;;-1.17;74.32;96990.22;5082877;28;20046;-62
2021/01/26 08:12:37;;;;;;;8.07;4.05;;;;;;;-1.09;74.83;96991.50;5075918;28;20097;-60
2021/01/26 08:15:11;;;;;;;5.95;3.95;;;;;;;-1.08;74.93;96995.78;5081086;28;20036;-68
2021/01/26 08:17:38;;;;;;;11.70;4.88;;;;;;;-1.10;74.69;97008.72;5086171;27;20129;-59
2021/01/26 08:20:24;;;;;;;9.43;4.65;;;;;;;-1.09;74.39;97003.06;5078962;28;20787;-66
2021/01/26 08:22:58;;;;;;;10.27;4.57;;;;;;;-1.13;74.80;97004.72;5082255;28;20135;-61
2021/01/26 08:25:30;;;;;;;11.45;4.88;;;;;;;-1.21;74.42;96994.56;5075572;28;20036;-60
2021/01/26 08:28:02;;;;;;;29.52;10.82;;;;;;;-1.17;75.68;97007.16;5079900;28;20048;-61
2021/01/26 08:30:36;;;;;;;10.10;4.60;;;;;;;-1.23;75.00;97019.03;5052915;28;20080;-57
2021/01/26 08:33:11;;;;;;;10.25;4.70;;;;;;;-1.15;75.54;97020.31;5070084;28;20075;-61
2021/01/26 08:36:07;;;;;;;8.15;4.28;;;;;;;-0.97;74.15;97008.06;5080031;28;20043;-62
2021/01/26 08:38:58;;;;;;;11.70;4.65;;;;;;;-1.07;74.00;97013.53;5079101;28;20052;-63
2021/01/26 08:41:40;;;;;;;10.20;4.15;;;;;;;-0.96;73.15;97006.97;5070507;28;20063;-65
2021/01/26 08:44:18;;;;;;;5.78;3.75;;;;;;;-1.12;72.65;97009.00;5065224;28;20501;-58
2021/01/26 08:46:43;;;;;;;8.55;3.88;;;;;;;-1.02;72.83;97010.78;5073255;28;20400;-63
2021/01/26 08:49:21;;;;;;;9.63;4.57;;;;;;;-1.04;72.46;97011.06;5075334;28;20040;-69
2021/01/26 08:51:47;;;;;;;6.03;3.67;;;;;;;-1.10;71.77;97017.56;5071802;28;20036;-60
2021/01/26 08:54:35;;;;;;;6.07;3.83;;;;;;;-1.03;72.26;97012.66;5074229;28;20039;-61
2021/01/26 08:57:00;;;;;;;5.38;3.38;;;;;;;-0.96;71.74;97013.13;5067557;28;20059;-61
2021/01/26 08:59:30;;;;;;;8.80;4.47;;;;;;;-1.00;72.45;97027.44;5081730;27;20696;-59
2021/01/26 09:01:56;;;;;;;12.48;4.45;;;;;;;-0.98;72.29;97030.66;5076340;28;20039;-59
2021/01/26 09:04:27;;;;;;;6.55;3.70;;;;;;;-0.97;71.61;97027.69;5074094;28;20509;-59
2021/01/26 09:06:53;;;;;;;6.50;3.50;;;;;;;-0.91;71.97;97031.13;5068161;28;20068;-62
2021/01/26 09:09:21;;;;;;;7.00;3.63;;;;;;;-0.88;72.19;97029.72;5071049;28;20524;-61
2021/01/26 09:11:54;;;;;;;5.50;3.60;;;;;;;-0.80;73.72;97027.22;5078338;28;20047;-61
2021/01/26 09:14:27;;;;;;;6.20;3.38;;;;;;;-0.82;71.49;97025.91;5075656;28;20044;-62
2021/01/26 09:17:05;;;;;;;5.28;3.47;;;;;;;-0.89;71.05;97028.16;5061181;28;20039;-60
2021/01/26 09:19:44;;;;;;;8.20;3.28;;;;;;;-0.71;70.74;97023.94;5078295;28;20127;-64
2021/01/26 09:22:13;;;;;;;5.40;2.95;;;;;;;-0.69;70.56;97019.06;5066428;28;20063;-63
2021/01/26 09:24:39;;;;;;;6.03;3.30;;;;;;;-0.59;70.04;97013.56;5079816;28;20488;-59
2021/01/26 09:27:26;;;;;;;5.97;2.92;;;;;;;-0.52;68.69;97038.25;5073121;28;20032;-66
2021/01/26 09:30:10;;;;;;;6.28;3.47;;;;;;;-0.40;69.64;97029.75;5080291;28;20047;-62
2021/01/26 09:32:37;;;;;;;5.35;3.22;;;;;;;-0.41;69.81;97028.97;5077372;28;20040;-61
2021/01/26 09:35:26;;;;;;;5.13;2.83;;;;;;;-0.34;70.11;97027.78;5069437;28;20043;-70
2021/01/26 09:38:04;;;;;;;8.40;3.28;;;;;;;-0.38;68.62;97019.50;5073155;28;20048;-60
2021/01/26 09:40:30;;;;;;;7.72;2.72;;;;;;;-0.25;67.97;97024.19;5075534;28;20040;-63
2021/01/26 09:43:07;;;;;;;5.70;2.90;;;;;;;-0.30;67.57;97021.56;5078258;28;20040;-61
2021/01/26 09:45:33;;;;;;;4.82;2.90;;;;;;;-0.21;67.25;97021.72;5077798;28;20080;-62
2021/01/26 09:47:58;;;;;;;6.53;2.58;;;;;;;-0.11;67.79;97037.75;5077898;28;20627;-65
2021/01/26 09:50:28;;;;;;;5.97;3.38;;;;;;;-0.15;67.60;97041.31;5066457;28;20133;-63
2021/01/26 09:52:58;;;;;;;7.57;3.20;;;;;;;-0.26;67.78;97035.25;5076349;28;20040;-62
2021/01/26 09:55:26;;;;;;;4.75;2.60;;;;;;;-0.18;67.43;97044.56;5074287;28;20064;-63
2021/01/26 09:57:54;;;;;;;6.05;2.60;;;;;;;-0.21;68.18;97048.66;5075862;28;20044;-62
2021/01/26 10:00:22;;;;;;;6.60;2.88;;;;;;;-0.11;68.82;97045.84;5063459;28;20067;-62
2021/01/26 10:02:53;;;;;;;4.70;2.30;;;;;;;-0.15;67.66;97042.09;5072963;28;20058;-60
2021/01/26 10:05:21;;;;;;;8.15;3.40;;;;;;;-0.31;68.26;97044.19;5072736;28;20472;-60
2021/01/26 10:08:07;;;;;;;2.25;1.80;;;;;;;-0.01;68.56;97037.59;5079189;28;20579;-61
2021/01/26 10:10:33;;;;;;;3.17;2.28;;;;;;;0.09;68.46;97046.63;5075992;28;20044;-63
2021/01/26 10:13:30;;;;;;;5.88;3.35;;;;;;;-0.05;67.85;97047.38;5079114;28;20492;-62
2021/01/26 10:15:56;;;;;;;4.20;2.70;;;;;;;-0.13;68.65;97045.31;5066110;28;20047;-62
2021/01/26 10:18:28;;;;;;;4.53;2.33;;;;;;;-0.16;68.50;97047.78;5067980;28;20056;-61
2021/01/26 10:20:58;;;;;;;5.53;3.08;;;;;;;-0.17;67.65;97040.81;5078895;28;20042;-64
2021/01/26 10:23:26;;;;;;;4.60;3.13;;;;;;;-0.25;67.98;97048.44;5073747;28;20040;-61
2021/01/26 10:26:04;;;;;;;4.65;3.05;;;;;;;-0.12;66.89;97056.91;5082863;28;20497;-61
2021/01/26 10:28:30;;;;;;;5.22;2.20;;;;;;;-0.11;66.43;97062.00;5072260;28;20048;-64
2021/01/26 10:30:56;;;;;;;4.63;2.25;;;;;;;0.01;66.46;97058.88;5074651;28;20046;-64
2021/01/26 10:33:43;;;;;;;4.78;2.40;;;;;;;-0.01;66.57;97059.16;5073931;28;20542;-64
2021/01/26 10:36:17;;;;;;;7.05;3.15;;;;;;;0.03;66.10;97054.00;5069156;28;20484;-64
2021/01/26 10:38:44;;;;;;;8.13;3.13;;;;;;;0.17;66.33;97065.66;5058702;28;20541;-64
2021/01/26 10:41:12;;;;;;;4.97;2.50;;;;;;;0.23;65.79;97052.91;5053266;28;20071;-63
2021/01/26 10:43:39;;;;;;;3.95;2.50;;;;;;;0.09;66.38;97068.19;5064924;28;20068;-63
2021/01/26 10:46:11;;;;;;;4.25;2.67;;;;;;;0.31;64.10;97064.94;5061872;28;20116;-65
2021/01/26 10:48:42;;;;;;;4.40;2.55;;;;;;;0.24;65.91;97059.13;5066006;28;20147;-63
2021/01/26 10:51:25;;;;;;;7.43;2.63;;;;;;;0.12;66.26;97073.78;5066391;28;20135;-65
2021/01/26 10:53:51;;;;;;;4.70;2.58;;;;;;;0.36;65.88;97078.31;5078602;28;20088;-61
2021/01/26 10:56:17;;;;;;;5.65;2.85;;;;;;;0.32;66.47;97071.91;5071025;28;20068;-63
2021/01/26 10:58:44;;;;;;;5.68;3.08;;;;;;;0.31;65.07;97081.13;5079976;28;20044;-63
2021/01/26 11:01:12;;;;;;;5.20;2.97;;;;;;;0.22;65.26;97086.34;5071634;28;20069;-62
2021/01/26 11:03:38;;;;;;;4.13;2.47;;;;;;;0.15;65.04;97080.50;5078525;27;20107;-63
2021/01/26 11:06:03;;;;;;;6.25;2.65;;;;;;;0.21;64.89;97052.41;5073579;28;20047;-67
2021/01/26 11:08:29;;;;;;;4.82;2.58;;;;;;;0.13;64.58;97074.63;5077252;28;20496;-63
2021/01/26 11:10:54;;;;;;;3.88;2.38;;;;;;;0.13;65.08;97078.09;5082657;28;20105;-63
2021/01/26 11:13:20;;;;;;;6.82;2.85;;;;;;;0.20;65.02;97083.16;5069882;28;20060;-62
2021/01/26 11:15:45;;;;;;;4.45;2.55;;;;;;;0.15;64.15;97059.75;5078480;28;20036;-64
2021/01/26 11:18:11;;;;;;;4.13;2.38;;;;;;;0.17;64.80;97073.72;5074550;28;20044;-64
2021/01/26 11:20:37;;;;;;;4.95;2.55;;;;;;;0.24;63.30;97053.72;5077911;28;20040;-62
2021/01/26 11:23:03;;;;;;;4.43;2.53;;;;;;;0.16;64.07;97060.56;5076702;28;20043;-65
2021/01/26 11:25:29;;;;;;;4.85;2.40;;;;;;;0.26;63.51;97057.72;5079894;27;20048;-63
2021/01/26 11:27:55;;;;;;;4.15;2.55;;;;;;;0.33;63.65;97060.84;5082509;28;20052;-64
2021/01/26 11:30:23;;;;;;;9.27;3.20;;;;;;;0.26;64.90;97065.00;5074526;28;20056;-61
2021/01/26 11:32:48;;;;;;;5.63;3.00;;;;;;;0.32;65.17;97067.31;5078804;28;20508;-63
2021/01/26 11:35:17;;;;;;;7.50;3.42;;;;;;;0.27;64.17;97069.28;5074417;28;20139;-64
2021/01/26 11:37:43;;;;;;;4.95;3.17;;;;;;;0.28;64.49;97077.09;5059246;28;20044;-65
2021/01/26 11:40:09;;;;;;;7.85;3.47;;;;;;;0.29;65.34;97075.19;5059839;27;20048;-64
2021/01/26 11:42:37;;;;;;;5.18;3.00;;;;;;;0.55;65.50;97064.84;5081129;28;20063;-64
2021/01/26 11:45:08;;;;;;;6.75;2.83;;;;;;;0.55;64.64;97037.91;5077525;28;20382;-67
2021/01/26 11:47:34;;;;;;;6.68;3.13;;;;;;;0.54;64.47;97072.16;5083376;27;20040;-65
2021/01/26 11:50:06;;;;;;;5.45;2.72;;;;;;;0.52;64.84;97065.44;5083566;28;20086;-62
2021/01/26 11:52:32;;;;;;;5.18;2.85;;;;;;;0.49;64.63;97061.44;5066684;28;20068;-63
2021/01/26 11:55:03;;;;;;;4.28;2.67;;;;;;;0.70;65.41;97074.59;5083147;28;20067;-64
2021/01/26 11:57:29;;;;;;;6.57;2.97;;;;;;;0.82;64.19;97061.47;5082325;28;20515;-63
2021/01/26 11:59:54;;;;;;;3.97;2.17;;;;;;;0.54;64.09;97058.69;5083826;28;20314;-64